Skip to main content

Ilhas selvagens

ID 1210520 · 30.1406, -15.8692 map

Latest reading · 2026-05-09 19:00 (Europe/Lisbon)

Temperature
19.9 °C
Humidity
68 %
Pressure
1,015.5 hPa
Precipitation
0.0 mm
Radiation
1,476 W/m²
Wind speed
36.4 km/h
Wind direction
W · West

24-hour history

Time (Europe/Lisbon) Temp Humidity Pressure Rain Wind Dir
2026-05-09 19:00 19.9 °C 68 % 1,015.5 0.0 mm 36.4 km/h W
2026-05-09 18:00 20.6 °C 68 % 1,015.4 0.0 mm 37.8 km/h W
2026-05-09 17:00 20.8 °C 67 % 1,015.6 0.0 mm 37.4 km/h W
2026-05-09 16:00 20.2 °C 68 % 1,015.8 0.0 mm 34.6 km/h W
2026-05-09 15:00 19.7 °C 70 % 1,015.7 0.0 mm 40.7 km/h W
2026-05-09 14:00 18.8 °C 78 % 1,016.0 0.0 mm 32.0 km/h W
2026-05-09 13:00 17.8 °C 81 % 1,015.8 0.0 mm 40.3 km/h W
2026-05-09 12:00 18.2 °C 74 % 1,015.7 0.0 mm 36.4 km/h W
2026-05-09 11:00 17.6 °C 78 % 1,015.3 0.0 mm 42.1 km/h W
2026-05-09 10:00 17.3 °C 79 % 1,014.8 0.0 mm 42.5 km/h W
2026-05-09 09:00 17.1 °C 81 % 1,014.3 0.0 mm 32.4 km/h W
2026-05-09 08:00 17.0 °C 81 % 1,013.5 0.0 mm 41.4 km/h W
2026-05-09 07:00 16.0 °C 90 % 1,013.2 0.0 mm 45.0 km/h W
2026-05-09 06:00 16.3 °C 86 % 1,012.8 0.0 mm 44.3 km/h W
2026-05-09 05:00 17.2 °C 76 % 1,012.9 0.0 mm 47.2 km/h W
2026-05-09 04:00 17.1 °C 74 % 1,013.1 0.0 mm 43.6 km/h W
2026-05-09 03:00 17.2 °C 72 % 1,013.4 0.0 mm 48.6 km/h W
2026-05-09 02:00 17.2 °C 74 % 1,013.5 0.0 mm 51.1 km/h W
2026-05-09 01:00 17.2 °C 72 % 1,013.5 0.0 mm 49.7 km/h W
2026-05-09 00:00 17.3 °C 72 % 1,013.6 0.0 mm 51.5 km/h W
2026-05-08 23:00 17.5 °C 77 % 1,013.2 0.0 mm 51.1 km/h W
2026-05-08 22:00 17.6 °C 83 % 1,012.4 0.0 mm 50.8 km/h W
2026-05-08 21:00 17.6 °C 85 % 1,011.8 0.0 mm 50.8 km/h W
2026-05-08 20:00 17.0 °C 90 % 1,011.5 0.1 mm 60.5 km/h W